createdAt,value
2022-08-05T00:04:08.272Z,23.8
2022-08-05T00:09:48.255Z,23.8
2022-08-05T00:15:54.698Z,23.8
2022-08-05T00:21:35.594Z,23.8
2022-08-05T00:27:14.217Z,23.7
2022-08-05T00:32:52.114Z,23.7
2022-08-05T00:38:33.750Z,23.7
2022-08-05T00:44:09.066Z,23.6
2022-08-05T00:49:51.350Z,23.6
2022-08-05T00:55:34.283Z,23.6
2022-08-05T01:01:24.863Z,23.6
2022-08-05T01:07:36.341Z,23.6
2022-08-05T01:14:27.161Z,23.5
2022-08-05T01:20:04.594Z,23.5
2022-08-05T01:26:02.238Z,23.5
2022-08-05T01:31:42.533Z,23.5
2022-08-05T01:37:24.497Z,23.5
2022-08-05T01:43:03.574Z,23.5
2022-08-05T01:48:40.388Z,23.4
2022-08-05T01:54:27.246Z,23.4
2022-08-05T02:00:02.426Z,23.4
2022-08-05T02:05:37.363Z,23.4
2022-08-05T02:11:20.702Z,23.3
2022-08-05T02:18:29.003Z,23.3
2022-08-05T02:24:17.926Z,23.3
2022-08-05T02:29:59.280Z,23.3
2022-08-05T02:35:37.896Z,23.2
2022-08-05T02:41:43.112Z,23.2
2022-08-05T02:47:58.407Z,23.2
2022-08-05T02:53:54.669Z,23.2
2022-08-05T02:59:47.988Z,23.2
2022-08-05T03:06:53.437Z,23.1
2022-08-05T03:12:36.365Z,23.1
2022-08-05T03:18:33.921Z,23.1
2022-08-05T03:24:26.920Z,23.1
2022-08-05T03:30:10.563Z,23
2022-08-05T03:35:45.274Z,23
2022-08-05T03:41:19.957Z,23
2022-08-05T03:47:22.539Z,22.9
2022-08-05T03:54:59.024Z,22.9
2022-08-05T04:02:17.449Z,22.9
2022-08-05T04:08:36.631Z,22.8
2022-08-05T04:14:17.811Z,22.8
2022-08-05T04:20:05.513Z,22.8
2022-08-05T04:25:58.062Z,22.8
2022-08-05T04:31:39.494Z,22.8
2022-08-05T04:37:15.649Z,22.8
2022-08-05T04:42:52.822Z,22.7
2022-08-05T04:48:28.509Z,22.7
2022-08-05T04:54:03.544Z,22.7
2022-08-05T04:59:40.661Z,22.7
2022-08-05T05:05:16.399Z,22.7
2022-08-05T05:11:07.333Z,22.7
2022-08-05T05:17:07.407Z,22.7
2022-08-05T05:22:44.038Z,22.7
2022-08-05T05:28:19.124Z,22.6
2022-08-05T05:34:01.818Z,22.6
2022-08-05T05:39:37.717Z,22.6
2022-08-05T05:45:21.124Z,22.6
2022-08-05T05:50:56.467Z,22.6
2022-08-05T05:56:32.033Z,22.6
2022-08-05T06:02:11.227Z,22.6
2022-08-05T06:07:57.696Z,22.6
2022-08-05T06:13:40.616Z,22.6
2022-08-05T06:19:56.428Z,22.6
2022-08-05T06:26:00.010Z,22.6
2022-08-05T06:32:20.862Z,22.6
2022-08-05T06:38:08.277Z,22.4
2022-08-05T06:43:51.838Z,22.3
2022-08-05T06:50:00.902Z,22.1
2022-08-05T06:55:41.941Z,22
2022-08-05T07:01:21.278Z,22
2022-08-05T07:07:08.417Z,22
2022-08-05T07:12:43.382Z,22.1
2022-08-05T07:18:29.377Z,22.1
2022-08-05T07:24:11.369Z,22.3
2022-08-05T07:30:22.674Z,22.4
2022-08-05T07:36:20.945Z,22.3
2022-08-05T07:42:09.922Z,22.3
2022-08-05T07:48:11.420Z,22.5
2022-08-05T07:54:47.728Z,23.2
2022-08-05T08:00:27.821Z,23.6
2022-08-05T08:06:05.534Z,23.5
2022-08-05T08:11:47.751Z,24.2
2022-08-05T08:18:24.348Z,24.5
2022-08-05T08:24:05.206Z,24.6
2022-08-05T08:30:04.756Z,24.7
2022-08-05T08:36:37.385Z,25.4
2022-08-05T08:42:46.992Z,25.9
2022-08-05T08:51:21.977Z,27.2
2022-08-05T08:57:58.205Z,25.9
2022-08-05T09:03:40.662Z,24.9
2022-08-05T09:09:32.586Z,24.7
2022-08-05T09:15:13.736Z,23.9
2022-08-05T09:20:51.052Z,23.8
2022-08-05T09:26:26.571Z,24.3
2022-08-05T09:32:42.431Z,24.8
2022-08-05T09:38:32.422Z,25.1
2022-08-05T09:44:08.670Z,25.4
2022-08-05T09:49:54.719Z,25.5
2022-08-05T09:55:55.899Z,25.8
2022-08-05T10:01:55.511Z,25.6
2022-08-05T10:08:11.532Z,25.7
2022-08-05T10:14:26.749Z,25.9
2022-08-05T10:20:09.859Z,26.9
2022-08-05T10:25:56.219Z,26.5
2022-08-05T10:32:50.328Z,26.2
2022-08-05T10:38:49.757Z,25.9
2022-08-05T10:44:27.475Z,26.6
2022-08-05T10:50:20.895Z,25.7
2022-08-05T10:56:21.674Z,26.4
2022-08-05T11:02:04.553Z,26.7
2022-08-05T11:08:01.579Z,26.3
2022-08-05T11:14:16.856Z,27
2022-08-05T11:20:11.730Z,26.9
2022-08-05T11:26:08.700Z,26.9
2022-08-05T11:32:08.261Z,26.8
2022-08-05T11:38:27.319Z,27.2
2022-08-05T11:44:41.006Z,27.6
2022-08-05T11:50:31.261Z,28.2
2022-08-05T11:56:15.830Z,28.7
2022-08-05T12:02:24.329Z,28.6
2022-08-05T12:08:21.446Z,27.8
2022-08-05T12:14:03.905Z,27.4
2022-08-05T12:20:17.343Z,27.7
2022-08-05T12:26:11.185Z,28.2
2022-08-05T12:31:53.047Z,28
2022-08-05T12:37:31.858Z,28.3
2022-08-05T12:43:20.461Z,29
2022-08-05T12:49:12.966Z,28.2
2022-08-05T12:54:59.337Z,28.3
2022-08-05T13:01:59.570Z,28.3
2022-08-05T13:08:02.354Z,29
2022-08-05T13:14:04.213Z,29
2022-08-05T13:19:53.833Z,30.6
2022-08-05T13:25:51.491Z,30.5
2022-08-05T13:32:03.525Z,30.7
2022-08-05T13:37:45.457Z,30.6
2022-08-05T13:43:43.643Z,30.5
2022-08-05T13:49:31.356Z,32
2022-08-05T13:55:10.502Z,31.4
2022-08-05T14:01:36.330Z,32.1
2022-08-05T14:07:56.559Z,30.7
2022-08-05T14:14:11.969Z,30.1
2022-08-05T14:20:08.312Z,29.6
2022-08-05T14:26:02.893Z,29.7
2022-08-05T14:32:27.450Z,29.4
2022-08-05T14:38:05.482Z,29.5
2022-08-05T14:44:19.923Z,29.1
2022-08-05T14:50:14.210Z,29
2022-08-05T14:55:55.154Z,28.8
2022-08-05T15:01:47.404Z,28.7
2022-08-05T15:08:06.735Z,29.2
2022-08-05T15:14:43.214Z,29.5
2022-08-05T15:20:30.628Z,29.1
2022-08-05T15:26:07.285Z,28.8
2022-08-05T15:31:44.196Z,28.6
2022-08-05T15:38:09.022Z,28.4
2022-08-05T15:44:20.639Z,28.2
2022-08-05T15:49:59.304Z,28.2
2022-08-05T15:56:01.173Z,28.2
2022-08-05T16:01:53.757Z,28.8
2022-08-05T16:07:36.624Z,29
2022-08-05T16:13:11.790Z,29.1
2022-08-05T16:20:03.915Z,29.3
2022-08-05T16:25:45.996Z,29.3
2022-08-05T16:31:56.603Z,29.5
2022-08-05T16:38:03.968Z,29.2
2022-08-05T16:44:03.529Z,28.8
2022-08-05T16:49:41.034Z,28.6
2022-08-05T16:55:17.126Z,28.4
2022-08-05T17:00:59.646Z,28.3
2022-08-05T17:06:44.611Z,28.6
2022-08-05T17:12:50.841Z,28.8
2022-08-05T17:18:51.594Z,28.2
2022-08-05T17:24:31.291Z,27.5
2022-08-05T17:30:50.902Z,27.1
2022-08-05T17:36:32.626Z,27.1
2022-08-05T17:42:22.821Z,27
2022-08-05T17:48:24.905Z,27
2022-08-05T17:53:59.566Z,26.8
2022-08-05T17:59:35.157Z,26.6
2022-08-05T18:05:19.498Z,26.4
2022-08-05T18:10:56.231Z,26
2022-08-05T18:16:54.115Z,25.7
2022-08-05T18:22:36.162Z,25.4
2022-08-05T18:28:46.889Z,25.1
2022-08-05T18:34:23.444Z,24.8
2022-08-05T18:40:31.379Z,24.4
2022-08-05T18:47:52.993Z,24
2022-08-05T18:53:34.656Z,23.8
2022-08-05T18:59:42.202Z,23.6
2022-08-05T19:06:06.966Z,23.2
2022-08-05T19:12:20.554Z,23
2022-08-05T19:18:20.684Z,22.8
2022-08-05T19:24:04.828Z,22.6
2022-08-05T19:29:48.919Z,22.4
2022-08-05T19:35:26.148Z,22.2
2022-08-05T19:41:58.635Z,21.9
2022-08-05T19:47:50.804Z,21.8
2022-08-05T19:54:03.270Z,21.6
2022-08-05T20:00:07.323Z,21.6
2022-08-05T20:05:50.464Z,21.6
2022-08-05T20:11:33.006Z,21.5
2022-08-05T20:17:34.993Z,21.3
2022-08-05T20:23:09.744Z,21.2
2022-08-05T20:28:51.249Z,21.1
2022-08-05T20:34:31.180Z,21
2022-08-05T20:40:06.415Z,20.9
2022-08-05T20:45:47.835Z,20.8
2022-08-05T20:51:36.269Z,20.8
2022-08-05T20:57:15.227Z,21
2022-08-05T21:03:20.854Z,21
2022-08-05T21:08:55.511Z,21.1
2022-08-05T21:14:32.089Z,21.1
2022-08-05T21:20:12.148Z,21.2
2022-08-05T21:26:12.558Z,21.2
2022-08-05T21:31:52.845Z,21.1
2022-08-05T21:37:32.396Z,21.1
2022-08-05T21:43:17.765Z,21.2
2022-08-05T21:49:00.285Z,21.1
2022-08-05T21:55:42.761Z,21.2
2022-08-05T22:01:51.999Z,21.1
2022-08-05T22:07:39.508Z,21.1
2022-08-05T22:14:06.695Z,21.1
2022-08-05T22:20:19.728Z,21.1
2022-08-05T22:26:10.944Z,21
2022-08-05T22:31:55.071Z,20.9
2022-08-05T22:37:58.414Z,20.9
2022-08-05T22:43:36.370Z,20.9
2022-08-05T22:49:23.779Z,20.7
2022-08-05T22:56:04.047Z,20.8
2022-08-05T23:01:51.011Z,20.8
2022-08-05T23:07:48.723Z,21.1
2022-08-05T23:13:25.544Z,21.4
2022-08-05T23:19:23.733Z,21.5
2022-08-05T23:25:09.300Z,21.6
2022-08-05T23:31:30.310Z,21.6
2022-08-05T23:37:11.358Z,21.6
2022-08-05T23:42:47.603Z,21.7
2022-08-05T23:48:28.939Z,21.7
2022-08-05T23:54:04.011Z,21.7
